Details for Ryanair at LPPR




Go Back


Latest METAR
Local Time

LPPR 150500Z 00000KT CAVOK 15/15 Q1015
15/08/2018, 06:19:37

Description
Results
Ryanair Logo
Number of Pilots based at LPPR
1 Pilots Based here
Number of Ryanair Flights Departed from LPPR
6 Flights Departed
Number of Ryanair Flights Arrived at LPPR
9 Flights Arrived
Number of Ryanair Schedules Departing from LPPR
109 Schedules
Number of Ryanair Schedules Arriving at LPPR
111 Schedules
Number of Ryanair Schedules Departing from LPPR availible today
34 Schedules Today
Number of Ryanair Schedules Arriving at LPPR availible today
34 Schedules Today
Average Landing Rate at LPPR
-178 fpm
Ryanair Average Landing Rate at LPPR
-98 fpm
Total Fuel Purchased at LPPR by Ryanair
16,433.20 kgs / 36,228.63 lbs

Pilots Based at LPPR


Pilot ID
Pilot Name
Pilot Rank
No. of Flights
No. of Flying Hours
Fernando Só Silva
186
389.43
Content